РПИ Ростов-на-Дону

8 октября 2002 года в связи с концептуальными решениями реорганизации ЕС ОрВД и необходимостью оптимизации количества дочерних предприятий на основании распоряжения Министерства имущественных отношений Российской Федерации впервые на Юге России путем слияния ГУДП СКЦ АУВД «Стрела», ГУДП «Волгоградаэронавигация» и ГУДП «Кавказаэронавигация» было создано Государственное унитарное дочернее предприятие «Аэронавигация Юга».

ОСНОВНЫЕ ФУНКЦИИ ФИЛИАЛА: организация воздушного движения в границах ответственности; планирование и координирование использования воздушного пространства; информационное обеспечение пользователей воздушного пространства, предоставление средств радиотехнического обеспечения полётов, авиационной электросвязи; организация и осуществление технической эксплуатации и обслуживания объектов и средств радиотехнического обеспечения полётов, авиационной электросвязи и средств авиационной фиксированной спутниковой связи; контроль качества аэронавигационного обслуживания.

Обслуживаемая филиалом площадь, в воздушном пространстве которой решаются задачи ИВП и УВД, составляет 729 000 кв. км.

На территории Ростовской зоны ЕС ОрВД располагаются:

  • 104 воздушные трассы протяженностью 36504 км. (международных – 82, внутренних – 22);
  • 15 аэродромов гражданской авиации;
  • 37 аэродромов государственной авиации;
  • 3 аэродрома экспериментальной авиации;
  • 9 аэродромов ДОСААФ;
  • 151 посадочная площадка;
  • 177 градобойных  и 5 противолавинных позиций;
  • 47 авиационных и общевойсковых полигонов.

Филиал осуществляет аэронавигационное обслуживание в воздушном пространстве в границах Ростовской, Волгоградской, Астраханской областей, Краснодарского и Ставропольского краев, республик Адыгеи, Калмыкии, Ингушетии, Дагестана, Чеченской, Северной Осетии (Алания), Карачаево-Черкесской и Кабардино-Балкарской, а также над акваториями Азовского, Каспийского и Черного морей.

Сектора РЦ РПИ Ростов-на-Дону

Объединенный сектор РЦ - URRV_CTR - 122.900

Руководство

Grigori Badalov*

Куратор

Valeriy Polostyanoy

Первый заместитель куратора

Anton Nikolaev

Помощник куратора по мероприятиям
Инструкторы РПИ
Daniel Ryabkov * (Controller)
Grigori Badalov (Instructor)
Valeriy Polostyanoy (Instructor)
Входит в состав
Кавказ

Диспетчеры РПИ

Диспетчер Рейтинг Допуски *
Alexei Gladilin Instructor URRV_CTR
Anatoly Zhilkin Controller URRV_CTR
Artem Smychkov Instructor URRV_CTR
Daniel Ryabkov Controller URRV_CTR
Denis Zhuchkov Instructor URRV_CTR
Grigori Badalov Instructor URRV_CTR
Ivan Chernov Senior Controller URRV_CTR
Kirill Ivanov Controller URRV_CTR , SIP_APP
Valeriy Polostyanoy Instructor URRV_CTR
Alex Lupii Student 2 URSS_TWR, URSS_GND
Alexey Ginko Student 2 URSS_TWR!!!*, URSS_GND
Anton Fadeev Student URSS_GND
Dmitrii Khrupov Student 2 URMM_TWR, URSS_R_APP*, URWW_GND
Dmitry Sazonov Senior Student URSS_APP
Emanuel Teymoorian Senior Student URRP_APP , URSS_APP*
Gregory Adamov Student 2 URSS_TWR
Ivan Pivovarov Student 2 URSS_R_APP*
Maksim Kholodilov Student URFF_TWR!!!*
Maxim Baglikov Student 2 URSS_TWR!!!, URSS_R_APP*
Nikolay Kutorkin Student URSS_TWR!!!*, URSS_GND
Oleg Kabachenko Senior Student URSS_APP
Radomir Sigov Student URSS_GND
Sergey Vologzhin Unknown URSS_GND
YAKOV PONOMARENKO Student 2 URSS_R_APP*

Аэропорты РПИ

ICAO Город Название Погода
URFF Симферополь Симферополь
URSS Сочи Сочи URSS 020730Z 30001MPS 9999 NSC 13/M01 Q1013 WS ALL RWY R02/010070 R06/010070 NOSIG RMK R06/26002MPS QFE758
URRY
URKA Анапа Анапа URKA 020730Z 08007MPS CAVOK 11/M02 Q1014 R04/010070 NOSIG RMK QFE756/1009
URWA Астрахань Астрахань URWA 020730Z 10009MPS CAVOK 07/M04 Q1029 R09/010070 NOSIG RMK QFE774/1032
URMO Владикавказ Беслан URMO 020730Z 27003MPS 240V330 9000 BKN/// 01/M01 Q1018 R27/010070 TEMPO BKN016 RMK QFE718/0958
URWW Волгоград Волгоград URWW 020730Z 09006MPS CAVOK 01/M06 Q1030 R05/150060 NOSIG
URKG Геленджик Геленджик
URMG Грозный Грозный URMG 020730Z VRB01MPS 7000 BKN007 02/02 Q1020 R26/090070 NOSIG RMK MT OBSC OBST OBSC QFE750/1000
URKK Краснодар Пашковский URKK 020730Z 07004MPS 040V100 CAVOK 04/M02 Q1016 R05R/CLRD70 NOSIG RMK QFE759
URML Махачкала Уйташ URML 020730Z 16009MPS 9999 SCT030 07/03 Q1023 R14/01//70 NOSIG RMK QFE767/1023
URMM Минеральные Воды Минеральные Воды URMM 020730Z 10006MPS 4700 -DZ BR OVC004 00/00 Q1019 R11/290150 NOSIG RMK MT OBSC OBST OBSC QFE736/0981
URMS Назрань Магас
URMN Нальчик Нальчик URMN 020730Z 04001MPS 2500 BR OVC003 M01/M02 Q1019 R24/010070 NOSIG RMK QBB090 MT OBSC OBST OBSC QFE727
URRP Ростов-на-Дону Платов URRP 020730Z 11010MPS 9999 BKN014 03/M00 Q1021 R05/CLRD70 TEMPO OVC002 RMK QFE761/1015
URRR Ростов-на-Дону Ростов-на-Дону
URMT Ставрополь Ставрополь URMT 020730Z 13008MPS 8000 BKN007 01/M01 Q1018 R07/150060 NOSIG RMK QFE723
URWI Элиста Элиста URWI 020730Z 12009G14MPS CAVOK 05/M05 Q1025 R09/010065 NOSIG